createdAt,value
2023-03-13T00:00:01.023Z,99477.50
2023-03-13T00:05:03.735Z,99473.00
2023-03-13T00:10:06.667Z,99472.50
2023-03-13T00:15:08.853Z,99470.19
2023-03-13T00:20:11.324Z,99475.38
2023-03-13T00:25:12.912Z,99458.50
2023-03-13T00:30:14.703Z,99465.03
2023-03-13T00:35:16.612Z,99461.19
2023-03-13T00:40:18.936Z,99463.19
2023-03-13T00:45:20.550Z,99472.84
2023-03-13T00:50:22.115Z,99477.56
2023-03-13T00:55:23.708Z,99470.88
2023-03-13T01:00:25.450Z,99471.72
2023-03-13T01:05:27.087Z,99467.69
2023-03-13T01:10:28.641Z,99467.19
2023-03-13T01:15:31.293Z,99447.66
2023-03-13T01:20:33.029Z,99444.97
2023-03-13T01:25:37.720Z,99436.28
2023-03-13T01:30:39.492Z,99435.13
2023-03-13T01:35:42.098Z,99428.28
2023-03-13T01:40:48.796Z,99414.44
2023-03-13T01:46:17.730Z,99416.09
2023-03-13T01:51:45.997Z,99411.06
2023-03-13T01:56:51.110Z,99403.38
2023-03-13T02:01:55.647Z,99397.72
2023-03-13T02:07:01.640Z,99398.22
2023-03-13T02:12:07.442Z,99390.00
2023-03-13T02:17:09.010Z,99380.19
2023-03-13T02:22:19.915Z,99374.66
2023-03-13T02:27:21.734Z,99375.00
2023-03-13T02:32:24.093Z,99368.00
2023-03-13T02:37:27.343Z,99365.13
2023-03-13T02:42:29.584Z,99372.00
2023-03-13T02:47:32.286Z,99366.63
2023-03-13T02:52:39.134Z,99356.78
2023-03-13T02:57:41.186Z,99367.13
2023-03-13T03:02:43.767Z,99363.31
2023-03-13T03:07:45.336Z,99367.63
2023-03-13T03:12:47.082Z,99366.66
2023-03-13T03:17:48.954Z,99360.44
2023-03-13T03:22:50.602Z,99356.28
2023-03-13T03:27:52.525Z,99348.59
2023-03-13T03:32:54.933Z,99333.59
2023-03-13T03:37:57.750Z,99329.91
2023-03-13T03:42:59.750Z,99320.22
2023-03-13T03:48:01.910Z,99319.72
2023-03-13T03:53:04.860Z,99306.19
2023-03-13T03:58:07.031Z,99287.13
2023-03-13T04:03:34.657Z,99288.28
2023-03-13T04:08:37.038Z,99275.09
2023-03-13T04:13:38.830Z,99261.72
2023-03-13T04:18:40.567Z,99258.72
2023-03-13T04:23:42.811Z,99262.72
2023-03-13T04:28:44.519Z,99248.38
2023-03-13T04:33:51.097Z,99255.06
2023-03-13T04:39:04.640Z,99242.38
2023-03-13T04:44:31.956Z,99227.53
2023-03-13T04:49:53.173Z,99215.78
2023-03-13T04:55:03.681Z,99207.94
2023-03-13T05:00:22.569Z,99194.25
2023-03-13T05:05:39.972Z,99189.75
2023-03-13T05:11:10.467Z,99180.91
2023-03-13T05:16:39.050Z,99167.38
2023-03-13T05:22:09.763Z,99159.69
2023-03-13T05:27:29.776Z,99141.66
2023-03-13T05:32:49.856Z,99127.28
2023-03-13T05:38:12.553Z,99120.25
2023-03-13T05:43:34.438Z,99119.09
2023-03-13T05:49:00.417Z,99120.25
2023-03-13T05:54:19.009Z,99101.72
2023-03-13T05:59:47.258Z,99087.34
2023-03-13T06:05:14.937Z,99087.19
2023-03-13T06:10:16.947Z,99073.13
2023-03-13T06:15:18.737Z,99064.81
2023-03-13T06:20:32.128Z,99073.97
2023-03-13T06:25:35.265Z,99084.44
2023-03-13T06:30:36.985Z,99055.50
2023-03-13T06:35:55.071Z,99047.78
2023-03-13T06:40:57.774Z,99024.19
2023-03-13T06:46:03.767Z,99017.69
2023-03-13T06:51:05.521Z,99010.13
2023-03-13T06:56:08.047Z,99009.59
2023-03-13T07:01:11.592Z,99004.25
2023-03-13T07:06:13.185Z,98992.50
2023-03-13T07:11:14.989Z,99003.31
2023-03-13T07:16:16.776Z,99007.47
2023-03-13T07:21:18.454Z,98981.94
2023-03-13T07:26:20.604Z,98971.16
2023-03-13T07:31:26.670Z,98978.84
2023-03-13T07:36:28.494Z,98961.13
2023-03-13T07:41:30.151Z,98953.28
2023-03-13T07:46:31.698Z,98947.91
2023-03-13T07:51:42.857Z,98937.41
2023-03-13T07:56:45.818Z,98924.09
2023-03-13T08:01:47.476Z,98913.69
2023-03-13T08:06:49.103Z,98915.00
2023-03-13T08:11:50.712Z,98924.78
2023-03-13T08:16:52.338Z,98936.47
2023-03-13T08:21:53.980Z,98944.72
2023-03-13T08:26:55.569Z,98948.75
2023-03-13T08:31:57.513Z,98954.59
2023-03-13T08:36:59.108Z,98955.22
2023-03-13T08:42:00.748Z,98960.84
2023-03-13T08:47:02.390Z,98961.34
2023-03-13T08:52:05.628Z,98946.63
2023-03-13T08:57:07.253Z,98949.22
2023-03-13T09:02:09.738Z,98933.88
2023-03-13T09:07:11.358Z,98921.03
2023-03-13T09:12:24.739Z,98912.38
2023-03-13T09:17:29.967Z,98912.53
2023-03-13T09:22:31.588Z,98912.25
2023-03-13T09:27:33.160Z,98915.75
2023-03-13T09:32:34.838Z,98917.44
2023-03-13T09:37:36.538Z,98920.06
2023-03-13T09:42:46.652Z,98929.78
2023-03-13T09:47:56.096Z,98934.56
2023-03-13T09:53:03.929Z,98909.72
2023-03-13T09:58:16.508Z,98897.03
2023-03-13T10:03:22.323Z,98887.03
2023-03-13T10:08:26.352Z,98882.22
2023-03-13T10:14:05.242Z,98887.69
2023-03-13T10:19:14.535Z,98875.63
2023-03-13T10:24:23.478Z,98879.31
2023-03-13T10:29:27.414Z,98872.41
2023-03-13T10:34:45.312Z,98867.78
2023-03-13T10:39:46.865Z,98866.06
2023-03-13T10:44:48.494Z,98861.88
2023-03-13T10:49:57.160Z,98867.50
2023-03-13T10:55:18.602Z,98864.81
2023-03-13T11:00:29.169Z,98851.47
2023-03-13T11:05:42.506Z,98862.25
2023-03-13T11:11:19.722Z,98876.28
2023-03-13T11:16:26.310Z,98866.38
2023-03-13T11:21:33.812Z,98861.44
2023-03-13T11:26:38.310Z,98879.31
2023-03-13T11:31:47.643Z,98864.88
2023-03-13T11:37:16.021Z,98871.47
2023-03-13T11:42:32.677Z,98867.34
2023-03-13T11:47:55.269Z,98876.63
2023-03-13T11:53:18.585Z,98882.22
2023-03-13T11:58:52.574Z,98865.72
2023-03-13T12:04:04.286Z,98853.69
2023-03-13T12:09:16.544Z,98857.84
2023-03-13T12:14:34.029Z,98840.50
2023-03-13T12:19:47.727Z,98833.50
2023-03-13T12:24:58.655Z,98815.50
2023-03-13T12:30:49.224Z,98793.81
2023-03-13T12:36:00.785Z,98791.75
2023-03-13T12:41:11.444Z,98783.88
2023-03-13T12:46:26.320Z,98763.19
2023-03-13T12:51:54.784Z,98765.44
2023-03-13T12:57:09.885Z,98753.59
2023-03-13T13:02:37.468Z,98756.28
2023-03-13T13:07:40.277Z,98757.09
2023-03-13T13:12:44.919Z,98754.19
2023-03-13T13:18:25.642Z,98764.88
2023-03-13T13:23:34.181Z,98752.22
2023-03-13T13:28:36.072Z,98736.38
2023-03-13T13:33:38.416Z,98723.03
2023-03-13T13:38:41.978Z,98703.91
2023-03-13T13:43:48.918Z,98678.97
2023-03-13T13:49:05.878Z,98704.91
2023-03-13T13:54:53.423Z,98709.06
2023-03-13T14:00:24.339Z,98712.44
2023-03-13T14:05:29.176Z,98726.91
2023-03-13T14:10:40.034Z,98747.94
2023-03-13T14:15:54.960Z,98718.03
2023-03-13T14:21:01.550Z,98727.16
2023-03-13T14:26:13.364Z,98712.25
2023-03-13T14:31:32.958Z,98695.94
2023-03-13T14:36:47.767Z,98691.03
2023-03-13T14:41:50.217Z,98680.63
2023-03-13T14:46:56.742Z,98681.00
2023-03-13T14:52:01.436Z,98672.69
2023-03-13T14:57:02.982Z,98681.47
2023-03-13T15:02:16.542Z,98676.78
2023-03-13T15:07:18.923Z,98668.47
2023-03-13T15:12:22.769Z,98653.97
2023-03-13T15:17:26.602Z,98648.28
2023-03-13T15:22:31.205Z,98651.47
2023-03-13T15:27:33.426Z,98632.41
2023-03-13T15:32:37.676Z,98634.25
2023-03-13T15:37:39.285Z,98630.69
2023-03-13T15:42:40.987Z,98634.78
2023-03-13T15:47:42.655Z,98623.84
2023-03-13T15:52:44.484Z,98615.81
2023-03-13T15:57:47.294Z,98591.72
2023-03-13T16:02:49.245Z,98587.16
2023-03-13T16:07:50.847Z,98584.25
2023-03-13T16:12:55.935Z,98576.00
2023-03-13T16:17:57.607Z,98574.94
2023-03-13T16:23:03.354Z,98550.75
2023-03-13T16:28:07.417Z,98546.25
2023-03-13T16:33:10.235Z,98527.84
2023-03-13T16:38:11.937Z,98524.75
2023-03-13T16:43:13.569Z,98521.81
2023-03-13T16:48:17.586Z,98516.22
2023-03-13T16:53:19.478Z,98503.16
2023-03-13T16:58:21.472Z,98496.47
2023-03-13T17:03:23.335Z,98488.50
2023-03-13T17:08:24.894Z,98480.94
2023-03-13T17:13:26.533Z,98487.19
2023-03-13T17:18:28.106Z,98477.91
2023-03-13T17:23:30.939Z,98480.59
2023-03-13T17:28:32.576Z,98474.44
2023-03-13T17:33:34.209Z,98476.91
2023-03-13T17:38:35.896Z,98492.69
2023-03-13T17:43:38.176Z,98491.03
2023-03-13T17:48:39.733Z,98477.63
2023-03-13T17:53:41.370Z,98469.81
2023-03-13T17:58:43.301Z,98470.28
2023-03-13T18:03:45.549Z,98474.03
2023-03-13T18:08:48.633Z,98461.59
2023-03-13T18:13:50.689Z,98451.50
2023-03-13T18:18:53.606Z,98440.16
2023-03-13T18:23:56.960Z,98438.28
2023-03-13T18:29:00.290Z,98442.22
2023-03-13T18:34:04.054Z,98437.88
2023-03-13T18:39:08.953Z,98421.75
2023-03-13T18:44:14.664Z,98411.84
2023-03-13T18:49:21.469Z,98402.75
2023-03-13T18:54:23.184Z,98401.09
2023-03-13T18:59:26.073Z,98401.09
2023-03-13T19:04:27.716Z,98398.84
2023-03-13T19:09:43.265Z,98400.50
2023-03-13T19:14:45.733Z,98400.50
2023-03-13T19:19:47.558Z,98406.91
2023-03-13T19:24:49.109Z,98431.28
2023-03-13T19:29:50.762Z,98472.84
2023-03-13T19:34:52.397Z,98569.69
2023-03-13T19:39:54.076Z,98589.41
2023-03-13T19:44:55.700Z,98574.31
2023-03-13T19:49:58.672Z,98557.41
2023-03-13T19:55:05.094Z,98531.34
2023-03-13T20:00:09.246Z,98501.78
2023-03-13T20:05:13.927Z,98496.03
2023-03-13T20:10:15.735Z,98467.94
2023-03-13T20:15:18.028Z,98462.38
2023-03-13T20:20:19.927Z,98463.66
2023-03-13T20:25:24.117Z,98467.56
2023-03-13T20:30:26.845Z,98449.41
2023-03-13T20:35:28.831Z,98423.81
2023-03-13T20:40:32.032Z,98400.31
2023-03-13T20:45:33.809Z,98366.56
2023-03-13T20:50:35.418Z,98361.00
2023-03-13T20:55:40.468Z,98347.97
2023-03-13T21:00:42.837Z,98352.75
2023-03-13T21:05:45.025Z,98342.38
2023-03-13T21:10:46.739Z,98349.84
2023-03-13T21:15:48.434Z,98347.78
2023-03-13T21:20:50.118Z,98344.69
2023-03-13T21:25:58.654Z,98348.41
2023-03-13T21:31:08.718Z,98343.28
2023-03-13T21:36:11.230Z,98328.63
2023-03-13T21:41:18.660Z,98307.16
2023-03-13T21:46:22.055Z,98308.38
2023-03-13T21:51:23.700Z,98306.72
2023-03-13T21:56:25.402Z,98301.41
2023-03-13T22:01:26.994Z,98311.91
2023-03-13T22:06:28.648Z,98314.03
2023-03-13T22:11:30.569Z,98332.25
2023-03-13T22:16:32.268Z,98338.81
2023-03-13T22:21:34.001Z,98364.47
2023-03-13T22:26:35.793Z,98352.84
2023-03-13T22:31:37.379Z,98359.09
2023-03-13T22:36:38.933Z,98375.03
2023-03-13T22:41:40.683Z,98379.38
2023-03-13T22:46:42.301Z,98386.34
2023-03-13T22:51:43.948Z,98401.63
2023-03-13T22:56:45.696Z,98390.03
2023-03-13T23:01:47.917Z,98399.53
2023-03-13T23:06:49.464Z,98396.66
2023-03-13T23:11:51.163Z,98390.91
2023-03-13T23:16:52.749Z,98373.53
2023-03-13T23:21:54.458Z,98368.19
2023-03-13T23:26:56.140Z,98357.88
2023-03-13T23:31:57.801Z,98341.56
2023-03-13T23:36:59.725Z,98290.56
2023-03-13T23:42:01.339Z,98207.78
2023-03-13T23:47:03.305Z,98164.25
2023-03-13T23:52:05.181Z,98168.81
2023-03-13T23:57:06.857Z,98138.47
